Time;durP1;ratioP1;P1;durP2;ratioP2;P2;SDS_P1;SDS_P2;PMS_P1;PMS_P2;Temp;Humidity;BMP_temperature;BMP_pressure;BME280_temperature;BME280_humidity;BME280_pressure;Samples;Min_cycle;Max_cycle;Signal;HPM_P1;HPM_P2
2021/06/25 00:01:53;;;;;;;22.53;20.13;;;19.30;75.40;;;;;;5118556;28;20497;-78
2021/06/25 00:04:20;;;;;;;23.60;21.20;;;19.20;76.40;;;;;;5118401;28;20774;-78
2021/06/25 00:06:47;;;;;;;21.83;19.50;;;19.20;76.00;;;;;;5118366;28;20520;-77
2021/06/25 00:09:15;;;;;;;23.87;21.10;;;19.20;76.00;;;;;;5118831;28;20439;-78
2021/06/25 00:11:42;;;;;;;23.30;20.93;;;19.20;76.00;;;;;;5118439;28;20455;-77
2021/06/25 00:14:09;;;;;;;23.07;20.83;;;19.30;76.40;;;;;;5118417;28;20447;-78
2021/06/25 00:16:35;;;;;;;21.63;19.60;;;19.30;76.30;;;;;;5118351;28;20853;-77
2021/06/25 00:19:02;;;;;;;23.90;20.70;;;19.30;76.00;;;;;;5118275;28;20445;-77
2021/06/25 00:21:29;;;;;;;20.40;18.50;;;19.30;76.30;;;;;;5117843;28;20490;-78
2021/06/25 00:23:56;;;;;;;21.90;19.23;;;19.40;76.30;;;;;;5118601;28;20430;-77
2021/06/25 00:26:24;;;;;;;22.13;19.87;;;19.40;75.50;;;;;;5118388;28;20443;-77
2021/06/25 00:28:50;;;;;;;20.33;18.43;;;19.40;75.60;;;;;;5118305;28;20435;-78
2021/06/25 00:31:17;;;;;;;23.87;19.03;;;19.40;75.50;;;;;;5118529;28;20463;-78
2021/06/25 00:33:44;;;;;;;21.77;19.67;;;19.40;75.30;;;;;;5119339;28;20431;-77
2021/06/25 00:36:10;;;;;;;23.20;20.73;;;19.40;75.30;;;;;;5124822;28;20443;-78
2021/06/25 00:38:37;;;;;;;23.10;20.80;;;19.40;75.00;;;;;;5119022;28;20443;-78
2021/06/25 00:41:04;;;;;;;20.20;18.40;;;19.40;74.90;;;;;;5118775;28;20463;-78
2021/06/25 00:43:32;;;;;;;22.63;20.37;;;19.30;74.60;;;;;;5118155;28;20435;-78
2021/06/25 00:45:59;;;;;;;22.73;20.37;;;19.20;74.60;;;;;;5118920;28;20449;-78
2021/06/25 00:48:25;;;;;;;23.10;21.00;;;19.10;75.00;;;;;;5118281;28;20447;-77
2021/06/25 00:50:52;;;;;;;22.40;20.30;;;19.10;75.20;;;;;;5117978;28;20816;-77
2021/06/25 00:53:19;;;;;;;22.53;20.23;;;19.00;75.40;;;;;;5117809;28;20437;-78
2021/06/25 00:55:46;;;;;;;23.70;21.50;;;19.00;75.50;;;;;;5118374;28;20438;-77
2021/06/25 00:58:15;;;;;;;20.90;18.90;;;18.90;76.10;;;;;;5117909;28;20449;-77
2021/06/25 01:00:44;;;;;;;19.70;17.90;;;18.90;76.40;;;;;;5117551;28;20969;-78
2021/06/25 01:03:11;;;;;;;23.20;20.90;;;18.90;76.30;;;;;;5117416;28;20992;-78
2021/06/25 01:05:38;;;;;;;21.87;19.77;;;18.90;76.30;;;;;;5117948;28;20439;-78
2021/06/25 01:08:07;;;;;;;21.10;18.97;;;18.90;76.10;;;;;;5117777;28;20461;-77
2021/06/25 01:10:34;;;;;;;23.33;21.13;;;19.00;76.40;;;;;;5117334;28;20913;-78
2021/06/25 01:13:01;;;;;;;21.70;19.50;;;19.00;76.40;;;;;;5117713;28;20439;-77
2021/06/25 01:15:27;;;;;;;22.67;20.57;;;19.00;76.50;;;;;;5117126;28;20795;-78
2021/06/25 01:17:56;;;;;;;22.13;20.00;;;18.90;76.40;;;;;;5117925;28;20443;-78
2021/06/25 01:20:26;;;;;;;20.50;18.50;;;19.00;76.70;;;;;;5117033;28;20467;-77
2021/06/25 01:22:56;;;;;;;23.00;20.50;;;19.00;76.70;;;;;;5117084;28;20550;-77
2021/06/25 01:25:24;;;;;;;21.13;19.03;;;19.00;76.40;;;;;;5117401;28;20446;-78
2021/06/25 01:27:53;;;;;;;22.03;19.70;;;19.00;76.30;;;;;;5117777;28;20452;-78
2021/06/25 01:30:23;;;;;;;21.03;18.90;;;19.00;76.10;;;;;;5116925;28;20467;-77
2021/06/25 01:32:50;;;;;;;23.97;19.73;;;19.00;76.00;;;;;;5116665;28;20443;-78
2021/06/25 01:35:18;;;;;;;21.63;19.60;;;19.00;75.90;;;;;;5117206;28;20783;-77
2021/06/25 01:37:45;;;;;;;21.47;19.47;;;19.00;75.80;;;;;;5116347;28;21054;-77
2021/06/25 01:40:15;;;;;;;22.50;20.37;;;18.90;75.90;;;;;;5116331;28;20469;-77
2021/06/25 01:42:44;;;;;;;23.77;21.27;;;18.90;75.90;;;;;;5116647;28;20469;-78
2021/06/25 01:45:13;;;;;;;21.57;19.57;;;18.80;75.70;;;;;;5116437;28;20447;-77
2021/06/25 01:47:41;;;;;;;22.97;20.70;;;18.80;75.70;;;;;;5117118;28;20446;-77
2021/06/25 01:50:11;;;;;;;22.47;20.30;;;18.60;75.60;;;;;;5117252;28;20467;-77
2021/06/25 01:52:42;;;;;;;21.87;19.57;;;18.60;75.90;;;;;;5117277;28;20446;-77
2021/06/25 01:55:09;;;;;;;19.57;17.67;;;18.60;76.40;;;;;;5115012;28;20430;-77
2021/06/25 01:57:38;;;;;;;20.43;18.43;;;18.60;76.40;;;;;;5115015;28;20451;-77
2021/06/25 02:00:06;;;;;;;20.43;18.53;;;18.60;76.10;;;;;;5114875;28;20492;-77
2021/06/25 02:02:33;;;;;;;19.47;17.77;;;18.60;75.80;;;;;;5115542;28;20509;-77
2021/06/25 02:05:00;;;;;;;20.57;18.67;;;18.60;75.60;;;;;;5121605;28;20439;-77
2021/06/25 02:07:27;;;;;;;20.30;18.40;;;18.50;75.40;;;;;;5114812;28;20454;-77
2021/06/25 02:09:55;;;;;;;19.60;17.43;;;18.50;75.30;;;;;;5114338;28;20943;-77
2021/06/25 02:12:22;;;;;;;18.93;17.33;;;18.50;75.30;;;;;;5114294;28;20917;-77
2021/06/25 02:14:50;;;;;;;20.23;18.23;;;18.50;75.40;;;;;;5114632;28;20446;-77
2021/06/25 02:17:17;;;;;;;20.67;18.57;;;18.40;75.20;;;;;;5114556;28;20438;-77
2021/06/25 02:19:43;;;;;;;19.70;17.80;;;18.40;75.00;;;;;;5114089;28;20458;-77
2021/06/25 02:22:10;;;;;;;20.73;18.60;;;18.40;75.30;;;;;;5114138;28;20470;-77
2021/06/25 02:24:37;;;;;;;22.60;20.40;;;18.40;75.30;;;;;;5114518;28;20833;-77
2021/06/25 02:27:06;;;;;;;19.23;17.60;;;18.40;75.20;;;;;;5114098;28;20996;-77
2021/06/25 02:29:33;;;;;;;19.83;18.00;;;18.40;75.40;;;;;;5114432;28;20447;-77
2021/06/25 02:32:01;;;;;;;20.10;18.20;;;18.40;75.60;;;;;;5115179;28;20471;-77
2021/06/25 02:34:28;;;;;;;22.27;20.27;;;18.30;75.40;;;;;;5114278;28;20450;-76
2021/06/25 02:36:55;;;;;;;21.00;18.70;;;18.30;75.50;;;;;;5114226;28;20446;-77
2021/06/25 02:39:22;;;;;;;21.27;19.33;;;18.30;75.20;;;;;;5114368;28;20447;-77
2021/06/25 02:41:49;;;;;;;21.27;19.17;;;18.30;75.10;;;;;;5114155;28;20458;-77
2021/06/25 02:44:15;;;;;;;21.20;19.10;;;18.30;75.10;;;;;;5114170;28;20451;-77
2021/06/25 02:46:42;;;;;;;18.93;17.00;;;18.30;74.60;;;;;;5114074;28;20458;-77
2021/06/25 02:49:10;;;;;;;19.47;17.67;;;18.30;74.60;;;;;;5114206;28;20431;-77
2021/06/25 02:51:37;;;;;;;19.50;17.50;;;18.20;74.30;;;;;;5113789;28;20980;-77
2021/06/25 02:54:04;;;;;;;20.00;18.00;;;18.20;74.20;;;;;;5114130;28;20449;-77
2021/06/25 02:56:31;;;;;;;19.53;17.73;;;18.20;74.10;;;;;;5114078;28;20442;-77
2021/06/25 02:58:58;;;;;;;18.77;16.87;;;18.20;74.30;;;;;;5113902;28;20451;-77
2021/06/25 03:01:24;;;;;;;20.13;18.13;;;18.10;74.20;;;;;;5113871;28;20459;-76
2021/06/25 03:03:51;;;;;;;17.73;16.13;;;18.10;74.20;;;;;;5113898;28;20474;-76
2021/06/25 03:06:19;;;;;;;18.83;16.93;;;18.00;74.30;;;;;;5114533;28;20807;-77
2021/06/25 03:08:46;;;;;;;17.83;16.10;;;18.00;74.50;;;;;;5118110;28;20452;-76
2021/06/25 03:11:12;;;;;;;19.57;17.67;;;18.00;74.30;;;;;;5118031;28;20533;-77
2021/06/25 03:13:39;;;;;;;20.43;18.47;;;18.00;74.40;;;;;;5117953;28;20435;-77
2021/06/25 03:16:06;;;;;;;20.50;18.50;;;18.00;74.40;;;;;;5118010;28;20446;-76
2021/06/25 03:18:33;;;;;;;20.10;18.30;;;18.00;74.40;;;;;;5117887;28;20447;-77
2021/06/25 03:21:00;;;;;;;19.23;17.33;;;17.90;74.50;;;;;;5117505;28;20475;-76
2021/06/25 03:23:28;;;;;;;18.40;16.70;;;17.90;74.50;;;;;;5117364;28;20991;-77
2021/06/25 03:25:55;;;;;;;19.57;17.67;;;17.80;74.40;;;;;;5117771;28;20439;-77
2021/06/25 03:28:22;;;;;;;19.40;17.60;;;17.80;74.20;;;;;;5117376;28;20787;-77
2021/06/25 03:30:48;;;;;;;19.13;17.43;;;17.80;74.30;;;;;;5119494;28;20466;-77
2021/06/25 03:33:15;;;;;;;21.30;19.30;;;17.70;75.00;;;;;;5121377;28;20794;-77
2021/06/25 03:35:42;;;;;;;18.97;17.27;;;17.70;74.60;;;;;;5117401;28;20945;-77
2021/06/25 03:38:09;;;;;;;18.93;17.27;;;17.70;74.90;;;;;;5117501;28;20805;-77
2021/06/25 03:40:37;;;;;;;20.03;18.10;;;17.70;74.70;;;;;;5117115;28;20968;-76
2021/06/25 03:43:05;;;;;;;20.17;18.07;;;17.70;74.50;;;;;;5117320;28;20474;-77
2021/06/25 03:45:33;;;;;;;19.43;17.73;;;17.70;74.50;;;;;;5117427;28;20427;-77
2021/06/25 03:47:59;;;;;;;20.43;18.43;;;17.60;74.50;;;;;;5117229;28;20809;-77
2021/06/25 03:50:26;;;;;;;19.27;17.37;;;17.70;74.60;;;;;;5117125;28;20463;-76
2021/06/25 03:52:53;;;;;;;19.07;17.27;;;17.60;74.60;;;;;;5117249;28;20435;-77
2021/06/25 03:55:20;;;;;;;19.80;17.83;;;17.60;74.70;;;;;;5117157;28;20446;-77
2021/06/25 03:57:48;;;;;;;20.57;18.37;;;17.60;74.70;;;;;;5117363;28;20820;-76
2021/06/25 04:00:17;;;;;;;19.33;17.53;;;17.60;75.00;;;;;;5120006;28;20463;-76
2021/06/25 04:02:44;;;;;;;19.57;17.90;;;17.60;75.20;;;;;;5119994;28;20485;-76
2021/06/25 04:05:11;;;;;;;20.07;17.97;;;17.60;75.20;;;;;;5118015;28;20466;-77
2021/06/25 04:07:39;;;;;;;18.90;17.00;;;17.60;75.20;;;;;;5117425;28;20446;-77
2021/06/25 04:10:08;;;;;;;23.60;16.60;;;17.50;75.20;;;;;;5117717;28;20458;-77
2021/06/25 04:12:35;;;;;;;18.67;16.80;;;17.50;75.10;;;;;;5117654;28;20427;-77
2021/06/25 04:15:05;;;;;;;20.17;18.07;;;17.50;75.40;;;;;;5117291;28;20447;-77
2021/06/25 04:17:32;;;;;;;19.93;18.03;;;17.60;75.40;;;;;;5116122;28;20788;-77
2021/06/25 04:19:58;;;;;;;22.20;20.00;;;17.60;75.50;;;;;;5116297;28;20967;-77
2021/06/25 04:22:25;;;;;;;21.17;18.97;;;17.60;75.50;;;;;;5116506;28;20810;-77
2021/06/25 04:24:52;;;;;;;20.70;18.67;;;17.60;75.60;;;;;;5116859;28;20443;-77
2021/06/25 04:27:19;;;;;;;20.40;18.40;;;17.60;75.40;;;;;;5116243;28;20443;-77
2021/06/25 04:29:46;;;;;;;22.27;20.03;;;17.60;75.40;;;;;;5116325;28;20807;-77
2021/06/25 04:32:16;;;;;;;26.73;19.03;;;17.70;75.50;;;;;;5116496;28;20770;-77
2021/06/25 04:34:43;;;;;;;20.67;18.47;;;17.70;75.70;;;;;;5116475;28;20423;-77
2021/06/25 04:37:10;;;;;;;24.70;22.17;;;17.60;75.80;;;;;;5115987;28;20449;-76
2021/06/25 04:39:36;;;;;;;23.60;21.23;;;17.70;76.10;;;;;;5116246;28;20862;-76
2021/06/25 04:42:04;;;;;;;28.17;25.20;;;17.70;76.70;;;;;;5116135;28;20455;-76
2021/06/25 04:44:31;;;;;;;27.33;24.33;;;17.70;77.20;;;;;;5115823;28;20501;-77
2021/06/25 04:46:57;;;;;;;27.87;25.03;;;17.70;77.60;;;;;;5116183;28;20447;-76
2021/06/25 04:49:25;;;;;;;29.93;25.53;;;17.80;77.90;;;;;;5117061;28;20450;-77
2021/06/25 04:51:52;;;;;;;27.27;24.37;;;17.80;78.30;;;;;;5116441;28;20466;-77
2021/06/25 04:54:19;;;;;;;28.97;24.70;;;17.80;78.30;;;;;;5116472;28;20434;-78
2021/06/25 04:56:45;;;;;;;26.67;23.87;;;17.90;78.50;;;;;;5116611;28;20446;-77
2021/06/25 04:59:12;;;;;;;25.63;23.00;;;17.90;78.70;;;;;;5121757;28;20423;-78
2021/06/25 05:01:39;;;;;;;26.90;24.20;;;17.90;78.70;;;;;;5117564;28;20463;-76
2021/06/25 05:04:06;;;;;;;30.63;26.17;;;17.90;78.30;;;;;;5116340;28;20999;-76
2021/06/25 05:06:34;;;;;;;29.80;26.70;;;17.90;78.20;;;;;;5115869;28;20453;-77
2021/06/25 05:09:00;;;;;;;32.50;26.97;;;17.90;78.40;;;;;;5115375;28;20956;-76
2021/06/25 05:11:27;;;;;;;32.27;27.60;;;17.90;78.70;;;;;;5115578;28;20462;-76
2021/06/25 05:13:54;;;;;;;34.90;28.50;;;17.90;78.50;;;;;;5115627;28;20449;-76
2021/06/25 05:16:21;;;;;;;31.60;27.87;;;17.90;79.30;;;;;;5115597;28;20450;-76
2021/06/25 05:18:48;;;;;;;39.53;30.90;;;17.90;79.80;;;;;;5116486;28;20443;-78
2021/06/25 05:21:14;;;;;;;36.80;31.07;;;17.90;79.50;;;;;;5116130;28;21022;-75
2021/06/25 05:23:42;;;;;;;42.17;34.10;;;18.00;80.00;;;;;;5116299;28;20478;-77
2021/06/25 05:26:09;;;;;;;46.37;33.73;;;17.90;79.40;;;;;;5116609;28;20438;-75
2021/06/25 05:28:36;;;;;;;49.53;34.80;;;18.00;79.90;;;;;;5115753;28;20529;-76
2021/06/25 05:31:03;;;;;;;45.77;38.00;;;18.00;79.80;;;;;;5114854;28;20463;-76
2021/06/25 05:33:29;;;;;;;44.07;35.43;;;17.90;80.10;;;;;;5115180;28;20443;-76
2021/06/25 05:35:56;;;;;;;44.37;37.10;;;17.90;80.50;;;;;;5115141;28;20443;-77
2021/06/25 05:38:24;;;;;;;45.60;37.80;;;17.90;80.90;;;;;;5114858;28;20937;-76
2021/06/25 05:40:52;;;;;;;43.17;36.50;;;18.10;81.00;;;;;;5115007;28;20467;-75
2021/06/25 05:43:19;;;;;;;43.10;37.83;;;18.10;81.30;;;;;;5115041;28;20535;-76
2021/06/25 05:45:46;;;;;;;43.20;37.03;;;18.10;80.70;;;;;;5115051;27;20447;-76
2021/06/25 05:48:13;;;;;;;44.13;37.10;;;18.10;80.40;;;;;;5115146;28;20800;-75
2021/06/25 05:50:40;;;;;;;41.23;36.40;;;18.20;80.60;;;;;;5115096;28;20465;-75
2021/06/25 05:53:08;;;;;;;40.47;35.00;;;18.20;80.50;;;;;;5114780;28;20482;-76
2021/06/25 05:55:34;;;;;;;40.60;36.50;;;18.20;80.20;;;;;;5114481;28;20438;-75
2021/06/25 05:58:03;;;;;;;42.20;37.70;;;18.20;81.20;;;;;;5114878;28;20442;-77
2021/06/25 06:00:30;;;;;;;42.57;37.87;;;18.20;81.20;;;;;;5114648;28;20459;-76
2021/06/25 06:02:57;;;;;;;40.13;35.00;;;18.20;81.50;;;;;;5114353;28;20434;-76
2021/06/25 06:05:23;;;;;;;49.67;36.87;;;18.20;81.20;;;;;;5114564;28;20814;-75
2021/06/25 06:07:50;;;;;;;37.83;33.87;;;18.30;80.90;;;;;;5114578;28;20455;-76
2021/06/25 06:10:17;;;;;;;36.50;32.80;;;18.40;80.10;;;;;;5114104;28;20463;-76
2021/06/25 06:12:44;;;;;;;35.27;30.10;;;18.50;80.50;;;;;;5114154;28;20977;-77
2021/06/25 06:15:13;;;;;;;36.43;31.20;;;18.60;79.70;;;;;;5114377;28;20478;-76
2021/06/25 06:17:42;;;;;;;37.83;32.10;;;18.80;78.50;;;;;;5114119;28;20815;-77
2021/06/25 06:20:12;;;;;;;38.23;30.50;;;18.80;77.60;;;;;;5114177;28;20475;-77
2021/06/25 06:31:10;;;;;;;31.93;28.10;;;19.00;75.40;;;;;;5116187;28;20495;-77
2021/06/25 06:33:41;;;;;;;28.43;25.53;;;19.10;75.90;;;;;;5115534;28;20420;-77
2021/06/25 06:36:12;;;;;;;28.73;25.57;;;19.10;72.90;;;;;;5115661;28;20545;-77
2021/06/25 06:38:39;;;;;;;32.53;23.67;;;19.20;73.10;;;;;;5115099;28;20796;-77
2021/06/25 06:41:06;;;;;;;28.07;24.17;;;19.20;71.00;;;;;;5114058;28;21045;-78
2021/06/25 06:43:34;;;;;;;27.10;24.20;;;19.20;70.90;;;;;;5114649;28;20475;-80
2021/06/25 06:46:02;;;;;;;31.00;23.40;;;19.30;71.80;;;;;;5114869;28;20537;-77
2021/06/25 06:48:28;;;;;;;26.90;24.20;;;19.40;71.20;;;;;;5115312;28;20457;-77
2021/06/25 06:50:55;;;;;;;25.37;22.67;;;19.50;70.70;;;;;;5114732;28;20964;-78
2021/06/25 06:53:22;;;;;;;27.40;23.03;;;19.50;68.60;;;;;;5114845;28;20439;-77
2021/06/25 06:55:49;;;;;;;27.23;21.40;;;19.60;69.10;;;;;;5114610;28;20916;-78
2021/06/25 06:58:16;;;;;;;24.80;19.47;;;19.70;66.80;;;;;;5114767;28;20447;-78
2021/06/25 07:00:43;;;;;;;19.93;17.40;;;19.80;66.50;;;;;;5114877;28;20458;-78
2021/06/25 07:03:14;;;;;;;22.23;19.93;;;20.00;66.30;;;;;;5115164;28;20447;-77
2021/06/25 07:05:41;;;;;;;22.70;19.53;;;20.10;65.70;;;;;;5115171;28;20466;-78
2021/06/25 07:08:07;;;;;;;24.73;22.30;;;20.20;63.80;;;;;;5113911;28;20443;-76
2021/06/25 07:10:34;;;;;;;25.40;22.80;;;20.10;64.50;;;;;;5113954;28;20466;-76
2021/06/25 07:13:01;;;;;;;24.47;21.20;;;20.20;65.80;;;;;;5114499;28;20430;-78
2021/06/25 07:15:28;;;;;;;23.80;21.40;;;20.30;66.40;;;;;;5114446;28;20423;-77
2021/06/25 07:17:54;;;;;;;23.50;21.10;;;20.30;65.00;;;;;;5115045;28;20447;-78
2021/06/25 07:20:22;;;;;;;20.40;18.37;;;20.20;65.00;;;;;;5114171;28;20478;-76
2021/06/25 07:22:49;;;;;;;26.80;22.57;;;20.30;66.40;;;;;;5114471;28;20467;-78
2021/06/25 07:25:16;;;;;;;22.97;20.53;;;20.30;64.90;;;;;;5115005;28;20467;-76
2021/06/25 07:27:43;;;;;;;24.30;21.80;;;20.30;64.90;;;;;;5116166;28;20446;-79
2021/06/25 07:30:10;;;;;;;25.63;22.80;;;20.50;65.50;;;;;;5114374;28;20474;-77
2021/06/25 07:32:37;;;;;;;21.17;18.73;;;20.40;63.10;;;;;;5114400;28;20932;-79
2021/06/25 07:35:05;;;;;;;23.43;20.17;;;20.50;63.90;;;;;;5114645;28;20446;-79
2021/06/25 07:37:33;;;;;;;21.17;18.10;;;20.60;63.50;;;;;;5117074;28;20438;-79
2021/06/25 07:39:59;;;;;;;22.93;18.97;;;20.60;63.10;;;;;;5115647;28;20423;-75
2021/06/25 07:42:26;;;;;;;21.73;17.37;;;20.80;61.80;;;;;;5116325;28;20823;-79
2021/06/25 07:44:53;;;;;;;19.97;18.00;;;20.80;60.60;;;;;;5116321;28;20485;-80
2021/06/25 07:47:20;;;;;;;20.63;16.57;;;20.60;59.10;;;;;;5116757;28;20792;-78
2021/06/25 07:49:47;;;;;;;18.50;14.20;;;20.70;60.40;;;;;;5117076;28;20450;-81
2021/06/25 07:52:14;;;;;;;17.23;15.60;;;20.90;59.70;;;;;;5117602;28;20423;-79
2021/06/25 07:54:42;;;;;;;18.97;16.97;;;21.20;58.30;;;;;;5120309;28;20435;-79
2021/06/25 07:57:08;;;;;;;18.07;16.23;;;21.30;58.70;;;;;;5122419;28;20435;-79
2021/06/25 07:59:35;;;;;;;17.07;15.47;;;21.40;56.80;;;;;;5120827;28;20419;-79
2021/06/25 08:02:02;;;;;;;16.80;15.10;;;21.50;57.60;;;;;;5120222;28;20988;-76
2021/06/25 08:04:31;;;;;;;16.53;13.67;;;21.70;57.70;;;;;;5119880;28;20811;-79
2021/06/25 08:06:57;;;;;;;14.37;13.03;;;21.90;57.30;;;;;;5119766;28;20462;-78
2021/06/25 08:09:24;;;;;;;15.43;13.83;;;22.10;54.70;;;;;;5120234;28;20444;-78
2021/06/25 08:11:52;;;;;;;15.47;13.87;;;22.20;53.70;;;;;;5118907;28;20540;-78
2021/06/25 08:14:19;;;;;;;16.43;13.30;;;22.30;54.10;;;;;;5119999;28;20439;-78
2021/06/25 08:16:46;;;;;;;15.83;14.10;;;22.50;53.60;;;;;;5119537;28;20443;-78
2021/06/25 08:19:13;;;;;;;14.23;12.87;;;22.60;53.70;;;;;;5118502;28;20439;-78
2021/06/25 08:21:40;;;;;;;15.20;13.67;;;22.70;53.20;;;;;;5118880;28;20469;-78
2021/06/25 08:24:08;;;;;;;15.63;12.73;;;22.90;53.30;;;;;;5119507;28;20478;-78
2021/06/25 08:26:35;;;;;;;16.90;15.30;;;22.90;52.10;;;;;;5119473;28;20454;-78
2021/06/25 08:29:03;;;;;;;15.60;13.87;;;23.20;52.00;;;;;;5119857;28;20427;-78
2021/06/25 08:31:30;;;;;;;13.47;12.17;;;23.30;51.80;;;;;;5119433;28;20463;-78
2021/06/25 08:33:57;;;;;;;14.27;12.73;;;23.50;52.50;;;;;;5118538;28;20450;-78
2021/06/25 08:36:25;;;;;;;15.30;13.67;;;23.80;51.00;;;;;;5119557;28;20443;-79
2021/06/25 08:38:52;;;;;;;13.17;11.77;;;24.00;49.90;;;;;;5119324;28;20518;-78
2021/06/25 08:41:19;;;;;;;16.90;12.83;;;24.10;47.90;;;;;;5118156;28;20459;-78
2021/06/25 08:43:46;;;;;;;14.67;13.37;;;24.30;49.50;;;;;;5117883;28;20789;-78
2021/06/25 08:46:14;;;;;;;14.37;12.97;;;24.30;48.30;;;;;;5118858;28;20443;-79
2021/06/25 08:48:45;;;;;;;13.07;11.33;;;24.20;48.70;;;;;;5117989;28;20450;-80
2021/06/25 08:51:12;;;;;;;12.30;11.20;;;24.40;48.90;;;;;;5117848;27;20959;-78
2021/06/25 08:53:38;;;;;;;13.23;12.03;;;24.40;47.50;;;;;;5118945;28;20454;-79
2021/06/25 08:56:05;;;;;;;13.37;12.00;;;24.50;48.20;;;;;;5118176;28;20434;-80
2021/06/25 08:58:32;;;;;;;12.87;11.50;;;24.50;48.20;;;;;;5118413;28;20466;-79
2021/06/25 09:01:00;;;;;;;12.77;11.60;;;24.50;48.00;;;;;;5118202;28;20458;-77
2021/06/25 09:03:29;;;;;;;12.80;11.80;;;24.50;47.10;;;;;;5118137;28;20453;-79
2021/06/25 09:06:09;;;;;;;14.63;12.63;;;24.50;47.10;;;;;;5118010;28;20467;-81
2021/06/25 09:08:36;;;;;;;12.67;11.10;;;24.40;47.10;;;;;;5118432;28;20437;-80
2021/06/25 09:11:18;;;;;;;11.47;10.47;;;24.40;47.30;;;;;;5117678;28;20466;-79
2021/06/25 09:13:45;;;;;;;13.40;10.70;;;24.50;47.20;;;;;;5118830;28;20443;-80
2021/06/25 09:16:23;;;;;;;12.03;10.73;;;24.50;45.00;;;;;;5119236;28;20427;-80
2021/06/25 09:19:01;;;;;;;11.40;10.40;;;24.30;44.40;;;;;;5124536;28;20455;-79
2021/06/25 09:21:29;;;;;;;11.50;10.40;;;24.50;46.60;;;;;;5120600;28;20447;-81
2021/06/25 09:23:56;;;;;;;11.10;10.10;;;24.70;44.70;;;;;;5119116;28;20873;-79
2021/06/25 09:26:30;;;;;;;12.40;11.27;;;24.60;44.10;;;;;;5119256;28;20808;-79
2021/06/25 09:29:12;;;;;;;11.97;10.80;;;24.60;43.40;;;;;;5118722;28;20434;-79
2021/06/25 09:31:39;;;;;;;11.97;10.87;;;24.60;44.20;;;;;;5118181;28;20849;-78
2021/06/25 09:34:09;;;;;;;12.47;11.47;;;24.60;43.40;;;;;;5118248;28;20454;-78
2021/06/25 09:36:38;;;;;;;10.40;9.60;;;24.90;45.30;;;;;;5118272;28;20447;-78
2021/06/25 09:39:08;;;;;;;14.47;10.30;;;25.00;45.50;;;;;;5118726;28;20443;-79
2021/06/25 09:41:36;;;;;;;13.00;11.80;;;25.10;45.30;;;;;;5118545;28;20470;-79
2021/06/25 09:44:04;;;;;;;12.10;11.00;;;25.20;45.10;;;;;;5118005;28;20466;-79
2021/06/25 09:46:32;;;;;;;12.57;11.30;;;25.30;43.70;;;;;;5117407;28;20420;-78
2021/06/25 09:49:02;;;;;;;10.50;9.70;;;25.50;43.50;;;;;;5116889;27;20799;-78
2021/06/25 09:51:30;;;;;;;12.43;11.33;;;25.90;43.40;;;;;;5117136;28;20878;-79
2021/06/25 09:54:08;;;;;;;11.27;10.37;;;26.20;39.80;;;;;;5117433;28;20451;-79
2021/06/25 09:56:38;;;;;;;12.33;11.23;;;26.50;42.90;;;;;;5116729;28;20462;-78
2021/06/25 09:59:26;;;;;;;13.27;12.07;;;26.60;41.40;;;;;;5116957;28;20538;-78
2021/06/25 10:01:52;;;;;;;12.53;11.23;;;26.70;39.90;;;;;;5117007;27;20491;-78
2021/06/25 10:04:33;;;;;;;11.27;9.97;;;26.90;41.90;;;;;;5116120;28;20785;-78
2021/06/25 10:07:13;;;;;;;12.20;11.00;;;26.90;42.00;;;;;;5116747;28;20577;-79
2021/06/25 10:09:40;;;;;;;12.43;11.40;;;27.20;42.60;;;;;;5116107;28;20427;-78
2021/06/25 10:12:09;;;;;;;12.10;11.00;;;27.20;40.30;;;;;;5116272;28;20455;-78
2021/06/25 10:14:36;;;;;;;11.20;10.40;;;27.40;40.00;;;;;;5116705;28;20925;-79
2021/06/25 10:17:05;;;;;;;11.83;10.70;;;27.60;38.20;;;;;;5115125;28;20952;-79
2021/06/25 10:19:32;;;;;;;9.20;8.40;;;27.80;36.30;;;;;;5116196;28;20477;-78
2021/06/25 10:22:03;;;;;;;12.03;10.83;;;28.30;37.70;;;;;;5115800;28;20524;-78
2021/06/25 10:24:33;;;;;;;11.60;10.47;;;28.50;35.70;;;;;;5115683;28;20458;-78
2021/06/25 10:27:02;;;;;;;12.13;10.93;;;28.70;35.00;;;;;;5115786;28;20487;-79
2021/06/25 10:29:32;;;;;;;12.43;11.33;;;28.70;35.20;;;;;;5115722;28;20446;-78
2021/06/25 10:31:58;;;;;;;12.00;10.87;;;28.60;35.80;;;;;;5115412;28;20467;-78
2021/06/25 10:34:25;;;;;;;12.17;11.13;;;28.50;36.40;;;;;;5116046;28;20446;-79
2021/06/25 10:36:53;;;;;;;12.10;11.10;;;28.70;35.80;;;;;;5115187;28;20449;-78
2021/06/25 10:39:19;;;;;;;13.97;12.23;;;28.80;35.50;;;;;;5115764;28;20431;-80
2021/06/25 10:41:52;;;;;;;11.63;10.63;;;29.00;36.00;;;;;;5115903;28;20459;-79
2021/06/25 10:44:42;;;;;;;12.87;11.70;;;29.00;36.00;;;;;;5115710;28;20442;-79
2021/06/25 10:47:15;;;;;;;11.10;9.97;;;29.00;36.20;;;;;;5115667;28;20471;-79
2021/06/25 10:50:19;;;;;;;12.13;11.13;;;29.20;35.30;;;;;;5115698;28;20423;-80
2021/06/25 10:53:08;;;;;;;12.20;11.20;;;29.40;36.00;;;;;;5117456;28;20435;-80
2021/06/25 10:55:44;;;;;;;11.83;10.80;;;29.50;35.00;;;;;;5117415;28;20789;-80
2021/06/25 10:58:20;;;;;;;12.50;11.47;;;29.40;34.00;;;;;;5117067;28;20422;-79
2021/06/25 11:00:55;;;;;;;10.73;9.70;;;29.50;34.40;;;;;;5116745;28;20467;-79
2021/06/25 11:03:45;;;;;;;13.30;12.03;;;29.80;35.00;;;;;;5116958;28;20790;-79
2021/06/25 11:06:55;;;;;;;12.23;11.20;;;29.70;33.50;;;;;;5116585;28;20497;-80
2021/06/25 11:09:23;;;;;;;13.47;12.20;;;29.90;35.50;;;;;;5115988;28;20435;-80
2021/06/25 11:12:20;;;;;;;13.00;11.87;;;29.70;32.80;;;;;;5116140;28;20462;-79
2021/06/25 11:14:49;;;;;;;10.83;9.80;;;29.70;34.20;;;;;;5115958;28;20420;-80
2021/06/25 11:17:48;;;;;;;11.77;10.67;;;30.30;35.30;;;;;;5116246;28;20446;-80
2021/06/25 11:20:21;;;;;;;14.60;13.33;;;30.60;32.80;;;;;;5115345;28;20478;-78
2021/06/25 11:22:53;;;;;;;13.63;12.43;;;31.20;30.10;;;;;;5115830;28;20789;-79
2021/06/25 11:25:34;;;;;;;13.40;12.10;;;31.60;30.30;;;;;;5115651;28;20548;-79
2021/06/25 11:28:22;;;;;;;12.40;11.27;;;32.10;30.30;;;;;;5118159;28;20430;-79
2021/06/25 11:30:57;;;;;;;11.33;10.33;;;33.10;30.90;;;;;;5119204;28;20492;-78
2021/06/25 11:33:25;;;;;;;13.43;12.40;;;33.70;30.90;;;;;;5119421;28;20512;-78
2021/06/25 11:35:52;;;;;;;12.53;11.53;;;33.50;29.60;;;;;;5118631;28;20446;-77
2021/06/25 11:38:19;;;;;;;14.70;13.10;;;33.10;30.00;;;;;;5119283;28;20449;-77
2021/06/25 11:40:49;;;;;;;12.30;11.23;;;32.60;29.30;;;;;;5118365;28;20471;-78
2021/06/25 11:43:16;;;;;;;12.23;11.10;;;32.10;30.00;;;;;;5119078;28;20525;-77
2021/06/25 11:45:49;;;;;;;12.00;10.27;;;31.70;31.30;;;;;;5118748;28;20862;-78
2021/06/25 11:48:18;;;;;;;12.30;11.30;;;31.90;31.60;;;;;;5118771;28;20438;-77
2021/06/25 11:50:45;;;;;;;11.80;10.70;;;32.70;29.80;;;;;;5118053;28;20466;-79
2021/06/25 11:53:12;;;;;;;12.03;11.00;;;33.40;29.10;;;;;;5118717;28;20801;-78
2021/06/25 11:55:43;;;;;;;11.37;10.20;;;34.00;29.10;;;;;;5118273;28;20430;-77
2021/06/25 11:58:19;;;;;;;10.80;9.67;;;34.80;28.20;;;;;;5119183;28;20430;-80
2021/06/25 12:00:45;;;;;;;11.00;10.00;;;35.70;26.90;;;;;;5120346;28;20465;-76
2021/06/25 12:03:12;;;;;;;12.13;11.13;;;36.30;25.90;;;;;;5117871;28;20419;-75
2021/06/25 12:05:45;;;;;;;12.70;11.70;;;36.10;25.10;;;;;;5117264;28;20478;-75
2021/06/25 12:08:14;;;;;;;13.87;12.47;;;34.90;26.20;;;;;;5116973;28;20441;-75
2021/06/25 12:10:44;;;;;;;13.57;12.20;;;33.50;27.80;;;;;;5116885;28;20473;-73
2021/06/25 12:13:12;;;;;;;14.00;12.57;;;32.50;29.70;;;;;;5116585;28;20896;-73
2021/06/25 12:15:44;;;;;;;11.57;10.60;;;32.00;28.70;;;;;;5116875;28;20429;-73
2021/06/25 12:18:20;;;;;;;10.97;10.03;;;32.10;30.40;;;;;;5120816;28;20426;-74
2021/06/25 12:20:48;;;;;;;11.60;10.60;;;32.70;29.80;;;;;;5116776;28;20474;-75
2021/06/25 12:23:15;;;;;;;13.37;11.97;;;33.20;29.20;;;;;;5116804;28;20434;-75
2021/06/25 12:25:45;;;;;;;14.17;12.43;;;33.40;29.10;;;;;;5116744;28;20459;-75
2021/06/25 12:28:13;;;;;;;11.40;10.50;;;33.30;27.70;;;;;;5116591;28;20447;-75
2021/06/25 12:30:43;;;;;;;10.40;9.60;;;33.00;28.20;;;;;;5116521;28;20470;-74
2021/06/25 12:33:10;;;;;;;10.60;9.80;;;33.10;29.50;;;;;;5116465;28;20423;-74
2021/06/25 12:35:39;;;;;;;10.47;9.57;;;33.10;29.70;;;;;;5116360;28;20781;-75
2021/06/25 12:38:09;;;;;;;12.13;11.10;;;33.00;29.90;;;;;;5116152;28;20438;-74
2021/06/25 12:40:44;;;;;;;11.60;10.80;;;33.00;29.10;;;;;;5115435;28;20470;-74
2021/06/25 12:43:13;;;;;;;11.33;10.23;;;32.90;29.90;;;;;;5116374;28;20451;-75
2021/06/25 12:45:46;;;;;;;12.60;11.23;;;32.80;29.80;;;;;;5116179;28;20479;-75